createdAt,value
2022-09-23T00:07:48.731Z,5.63
2022-09-23T00:17:51.733Z,5.15
2022-09-23T00:27:56.213Z,5.60
2022-09-23T00:37:59.205Z,5.77
2022-09-23T00:48:05.037Z,5.73
2022-09-23T00:58:11.854Z,5.33
2022-09-23T01:08:17.307Z,5.47
2022-09-23T01:18:32.679Z,6.23
2022-09-23T01:28:54.087Z,6.07
2022-09-23T01:39:03.767Z,5.73
2022-09-23T01:49:12.688Z,5.80
2022-09-23T01:59:22.677Z,6.60
2022-09-23T02:09:30.760Z,6.27
2022-09-23T02:19:41.788Z,6.83
2022-09-23T02:29:52.622Z,6.57
2022-09-23T02:40:07.122Z,6.10
2022-09-23T02:50:10.498Z,6.20
2022-09-23T03:00:16.806Z,6.87
2022-09-23T03:10:25.521Z,7.23
2022-09-23T03:20:35.338Z,6.93
2022-09-23T03:30:39.840Z,7.00
2022-09-23T03:40:47.779Z,6.73
2022-09-23T03:50:50.981Z,6.50
2022-09-23T04:00:55.508Z,5.53
2022-09-23T04:11:01.569Z,6.13
2022-09-23T04:21:06.042Z,6.40
2022-09-23T04:31:10.406Z,6.33
2022-09-23T04:41:15.348Z,6.67
2022-09-23T04:51:20.267Z,6.87
2022-09-23T05:01:26.796Z,7.40
2022-09-23T05:11:32.189Z,7.00
2022-09-23T05:21:37.746Z,6.50
2022-09-23T05:31:40.782Z,6.23
2022-09-23T05:41:46.437Z,6.20
2022-09-23T05:51:49.474Z,6.13
2022-09-23T06:01:56.422Z,6.10
2022-09-23T06:11:59.616Z,5.63
2022-09-23T06:22:04.033Z,5.07
2022-09-23T06:32:07.352Z,5.53
2022-09-23T06:42:11.689Z,5.23
2022-09-23T06:52:14.712Z,5.40
2022-09-23T07:02:19.126Z,5.30
2022-09-23T07:12:22.235Z,5.20
2022-09-23T07:22:27.147Z,5.20
2022-09-23T07:32:41.164Z,5.32
2022-09-23T07:42:49.026Z,6.10
2022-09-23T07:52:52.912Z,5.18
2022-09-23T08:02:57.349Z,4.90
2022-09-23T08:13:03.525Z,5.10
2022-09-23T08:23:07.973Z,5.00
2022-09-23T08:33:11.589Z,5.53
2022-09-23T08:43:28.262Z,5.93
2022-09-23T08:53:34.953Z,5.20
2022-09-23T09:03:44.125Z,6.03
2022-09-23T09:13:54.776Z,6.15
2022-09-23T09:24:00.662Z,6.03
2022-09-23T09:34:07.918Z,5.78
2022-09-23T09:44:37.047Z,5.07
2022-09-23T09:54:40.378Z,5.45
2022-09-23T10:04:44.941Z,5.60
2022-09-23T10:14:51.230Z,6.35
2022-09-23T10:24:56.253Z,5.22
2022-09-23T10:35:03.652Z,4.95
2022-09-23T10:45:38.563Z,4.90
2022-09-23T10:55:58.659Z,4.40
2022-09-23T11:06:13.523Z,5.13
2022-09-23T11:16:25.867Z,4.97
2022-09-23T11:26:41.786Z,5.28
2022-09-23T11:36:51.684Z,6.80
2022-09-23T11:47:01.547Z,7.55
2022-09-23T11:57:11.011Z,6.10
2022-09-23T12:07:20.774Z,5.28
2022-09-23T12:17:45.496Z,5.03
2022-09-23T12:27:54.638Z,5.20
2022-09-23T12:37:59.948Z,5.55
2022-09-23T12:48:25.515Z,5.47
2022-09-23T12:58:59.266Z,5.43
2022-09-23T13:09:03.815Z,4.70
2022-09-23T13:19:08.120Z,4.75
2022-09-23T13:29:18.038Z,3.50
2022-09-23T13:39:25.377Z,3.10
2022-09-23T13:49:34.025Z,2.72
2022-09-23T13:59:39.732Z,2.53
2022-09-23T14:09:46.052Z,2.70
2022-09-23T14:19:49.535Z,2.60
2022-09-23T14:29:54.192Z,2.67
2022-09-23T14:39:57.984Z,2.83
2022-09-23T14:50:19.867Z,2.40
2022-09-23T15:00:23.050Z,2.50
2022-09-23T15:10:30.821Z,2.55
2022-09-23T15:20:34.346Z,2.38
2022-09-23T15:30:39.824Z,2.42
2022-09-23T15:40:43.492Z,2.38
2022-09-23T15:50:48.207Z,2.05
2022-09-23T16:00:55.997Z,2.05
2022-09-23T16:11:03.143Z,2.08
2022-09-23T16:21:09.355Z,2.55
2022-09-23T16:31:15.887Z,2.40
2022-09-23T16:41:18.933Z,2.38
2022-09-23T16:51:26.132Z,2.80
2022-09-23T17:01:48.272Z,3.20
2022-09-23T17:11:58.683Z,2.88
2022-09-23T17:22:01.717Z,3.25
2022-09-23T17:32:06.246Z,2.95
2022-09-23T17:42:09.654Z,4.47
2022-09-23T17:52:14.028Z,3.67
2022-09-23T18:02:17.167Z,3.80
2022-09-23T18:12:21.567Z,4.97
2022-09-23T18:22:24.569Z,4.18
2022-09-23T18:32:28.939Z,3.88
2022-09-23T18:42:32.142Z,4.03
2022-09-23T18:52:36.480Z,4.22
2022-09-23T19:02:39.546Z,3.90
2022-09-23T19:12:44.026Z,4.20
2022-09-23T19:22:48.269Z,3.72
2022-09-23T19:32:52.623Z,4.20
2022-09-23T19:42:55.603Z,4.57
2022-09-23T19:52:59.946Z,4.10
2022-09-23T20:03:03.004Z,5.35
2022-09-23T20:13:07.474Z,4.70
2022-09-23T20:23:10.497Z,4.57
2022-09-23T20:33:16.125Z,4.65
2022-09-23T20:43:20.185Z,5.15
2022-09-23T20:53:24.773Z,5.20
2022-09-23T21:03:29.536Z,5.30
2022-09-23T21:13:34.152Z,7.28
2022-09-23T21:23:38.997Z,8.02
2022-09-23T21:33:44.119Z,7.28
2022-09-23T21:43:49.478Z,6.15
2022-09-23T21:53:55.642Z,4.40
2022-09-23T22:04:05.173Z,4.13
2022-09-23T22:14:12.890Z,4.60
2022-09-23T22:24:15.896Z,4.70
2022-09-23T22:34:47.573Z,5.20
2022-09-23T22:44:43.673Z,6.35
2022-09-23T22:54:48.047Z,6.28
2022-09-23T23:04:51.621Z,6.15
2022-09-23T23:14:56.516Z,5.95
2022-09-23T23:24:59.553Z,6.10
2022-09-23T23:35:04.113Z,5.05
2022-09-23T23:45:08.279Z,5.57
2022-09-23T23:55:12.626Z,5.40
